Time;durP1;ratioP1;P1;durP2;ratioP2;P2;SDS_P1;SDS_P2;PMS_P1;PMS_P2;Temp;Humidity;BMP_temperature;BMP_pressure;BME280_temperature;BME280_humidity;BME280_pressure;Samples;Min_cycle;Max_cycle;Signal;HPM_P1;HPM_P2
2024/02/25 00:01:30;;;;;;;3.30;1.57;;;7.90;99.90;;;;;;5072860;28;20465;-57
2024/02/25 00:03:56;;;;;;;2.07;1.93;;;7.80;99.90;;;;;;5073132;28;20447;-57
2024/02/25 00:06:25;;;;;;;4.03;1.30;;;7.90;99.90;;;;;;5076829;28;20472;-57
2024/02/25 00:08:52;;;;;;;1.60;1.50;;;7.90;99.90;;;;;;5076373;28;20459;-57
2024/02/25 00:11:19;;;;;;;2.10;1.00;;;7.80;99.90;;;;;;5076365;28;20539;-57
2024/02/25 00:13:46;;;;;;;1.70;1.23;;;7.90;99.90;;;;;;5076584;28;20516;-57
2024/02/25 00:16:12;;;;;;;7.83;2.00;;;7.90;99.90;;;;;;5077279;28;20448;-58
2024/02/25 00:18:39;;;;;;;1.53;1.00;;;7.90;99.90;;;;;;5076510;28;20440;-57
2024/02/25 00:21:06;;;;;;;1.80;1.03;;;7.90;99.90;;;;;;5076441;28;20464;-57
2024/02/25 00:23:34;;;;;;;5.27;1.13;;;7.90;99.90;;;;;;5076490;28;20443;-57
2024/02/25 00:26:02;;;;;;;2.90;1.30;;;7.80;99.90;;;;;;5076441;28;20448;-57
2024/02/25 00:28:29;;;;;;;2.30;1.30;;;7.90;99.90;;;;;;5076347;28;20476;-57
2024/02/25 00:30:56;;;;;;;1.50;1.10;;;7.90;99.90;;;;;;5076237;28;20552;-57
2024/02/25 00:33:23;;;;;;;3.13;0.97;;;7.90;99.90;;;;;;5076212;28;20480;-57
2024/02/25 00:35:50;;;;;;;1.00;0.80;;;7.90;99.90;;;;;;5076110;28;20444;-57
2024/02/25 00:38:17;;;;;;;2.20;0.97;;;7.90;99.90;;;;;;5075670;28;20901;-57
2024/02/25 00:40:45;;;;;;;1.10;1.00;;;7.90;99.80;;;;;;5076093;28;20490;-57
2024/02/25 00:43:11;;;;;;;1.47;1.17;;;7.90;99.80;;;;;;5076132;28;20445;-57
2024/02/25 00:45:38;;;;;;;0.90;0.80;;;7.90;99.90;;;;;;5076029;28;20440;-57
2024/02/25 00:48:06;;;;;;;2.03;1.13;;;7.90;99.90;;;;;;5075716;28;20444;-57
2024/02/25 00:50:33;;;;;;;0.93;0.83;;;7.90;99.90;;;;;;5075629;28;20444;-57
2024/02/25 00:53:00;;;;;;;1.10;0.70;;;7.90;99.90;;;;;;5075303;28;20532;-57
2024/02/25 00:55:26;;;;;;;2.70;0.83;;;7.90;99.90;;;;;;5075234;28;20458;-57
2024/02/25 00:57:54;;;;;;;1.07;0.80;;;7.90;99.90;;;;;;5075444;28;20444;-57
2024/02/25 01:00:21;;;;;;;0.97;0.87;;;7.90;99.90;;;;;;5075530;28;20447;-55
2024/02/25 01:02:48;;;;;;;1.57;0.60;;;7.90;99.90;;;;;;5075654;28;20438;-55
2024/02/25 01:05:16;;;;;;;1.10;0.90;;;7.90;99.90;;;;;;5075592;28;20511;-55
2024/02/25 01:07:43;;;;;;;0.93;0.87;;;7.90;99.90;;;;;;5075499;28;20451;-55
2024/02/25 01:10:10;;;;;;;1.53;1.07;;;8.00;99.90;;;;;;5075586;28;20437;-55
2024/02/25 01:12:37;;;;;;;1.70;1.10;;;8.00;99.90;;;;;;5075129;28;20471;-55
2024/02/25 01:15:07;;;;;;;4.17;0.80;;;7.90;99.90;;;;;;5075400;28;20481;-55
2024/02/25 01:17:34;;;;;;;0.90;0.80;;;7.90;99.90;;;;;;5074437;28;20444;-55
2024/02/25 01:20:00;;;;;;;1.67;0.60;;;8.00;99.90;;;;;;5075483;28;20441;-55
2024/02/25 01:22:27;;;;;;;1.00;0.80;;;8.00;99.90;;;;;;5075753;28;20543;-55
2024/02/25 01:24:54;;;;;;;1.63;1.30;;;8.00;99.90;;;;;;5076196;28;20463;-55
2024/02/25 01:27:21;;;;;;;1.90;1.43;;;8.00;99.90;;;;;;5075889;28;20440;-55
2024/02/25 01:29:48;;;;;;;1.73;0.80;;;8.00;99.90;;;;;;5075855;28;20444;-55
2024/02/25 01:32:17;;;;;;;0.93;0.90;;;7.90;99.90;;;;;;5075238;28;20563;-55
2024/02/25 01:34:44;;;;;;;2.00;1.37;;;8.00;99.90;;;;;;5075206;28;20480;-55
2024/02/25 01:37:11;;;;;;;2.40;1.10;;;7.90;99.90;;;;;;5075155;28;20453;-55
2024/02/25 01:39:38;;;;;;;1.20;0.90;;;8.00;99.90;;;;;;5074722;28;20449;-55
2024/02/25 01:42:05;;;;;;;2.20;0.70;;;8.00;99.90;;;;;;5074567;28;20471;-55
2024/02/25 01:44:32;;;;;;;1.50;0.80;;;8.00;99.90;;;;;;5074981;28;20437;-55
2024/02/25 01:46:59;;;;;;;1.37;1.00;;;8.00;99.90;;;;;;5075006;28;20432;-55
2024/02/25 01:49:27;;;;;;;2.60;1.00;;;8.00;99.90;;;;;;5074637;28;20536;-56
2024/02/25 01:51:54;;;;;;;1.33;0.90;;;8.00;99.90;;;;;;5074383;28;20470;-55
2024/02/25 01:54:21;;;;;;;2.30;0.80;;;8.00;99.90;;;;;;5074186;28;21001;-55
2024/02/25 01:56:48;;;;;;;2.33;1.03;;;8.00;99.80;;;;;;5074423;28;20803;-55
2024/02/25 01:59:15;;;;;;;2.40;0.80;;;7.90;99.90;;;;;;5074714;28;20447;-55
2024/02/25 02:01:42;;;;;;;2.50;1.20;;;7.90;99.90;;;;;;5074246;28;21053;-55
2024/02/25 02:04:08;;;;;;;2.40;0.90;;;7.90;99.90;;;;;;5074432;28;20441;-55
2024/02/25 02:06:37;;;;;;;2.40;1.43;;;7.80;99.90;;;;;;5074474;28;20448;-55
2024/02/25 02:09:08;;;;;;;2.80;1.03;;;7.80;99.90;;;;;;5074416;28;20453;-55
2024/02/25 02:11:35;;;;;;;1.43;0.70;;;7.90;99.90;;;;;;5074433;28;20533;-55
2024/02/25 02:14:02;;;;;;;1.00;0.63;;;7.90;99.90;;;;;;5074241;28;20485;-55
2024/02/25 02:16:28;;;;;;;1.43;0.70;;;7.90;99.90;;;;;;5073892;28;20459;-55
2024/02/25 02:18:55;;;;;;;1.33;1.20;;;8.00;99.90;;;;;;5074348;28;20440;-55
2024/02/25 02:21:25;;;;;;;1.60;0.87;;;8.00;99.90;;;;;;5074233;28;20616;-55
2024/02/25 02:23:53;;;;;;;1.43;0.93;;;8.00;99.90;;;;;;5073965;28;20999;-55
2024/02/25 02:26:19;;;;;;;1.00;0.87;;;8.00;99.90;;;;;;5074190;28;20519;-55
2024/02/25 02:28:46;;;;;;;0.77;0.77;;;8.00;99.90;;;;;;5073435;28;20449;-55
2024/02/25 02:31:13;;;;;;;0.50;0.50;;;8.00;99.90;;;;;;5074061;28;20470;-55
2024/02/25 02:33:40;;;;;;;2.00;0.80;;;8.00;99.90;;;;;;5074195;28;20447;-55
2024/02/25 02:36:07;;;;;;;0.70;0.70;;;8.00;99.90;;;;;;5073869;28;20908;-55
2024/02/25 02:38:35;;;;;;;2.00;0.90;;;8.00;99.90;;;;;;5074069;28;20786;-55
2024/02/25 02:41:02;;;;;;;1.80;0.60;;;8.00;99.90;;;;;;5073386;28;20519;-55
2024/02/25 02:43:29;;;;;;;3.90;0.73;;;8.00;99.90;;;;;;5073786;28;20814;-55
2024/02/25 02:45:56;;;;;;;0.73;0.73;;;8.00;99.90;;;;;;5073743;28;20441;-55
2024/02/25 02:48:23;;;;;;;1.17;0.57;;;8.10;99.90;;;;;;5073690;28;20452;-55
2024/02/25 02:50:49;;;;;;;3.60;1.30;;;8.10;99.90;;;;;;5073293;28;20469;-55
2024/02/25 02:53:16;;;;;;;1.60;0.70;;;8.10;99.80;;;;;;5073204;28;20822;-55
2024/02/25 02:55:45;;;;;;;0.77;0.67;;;8.10;99.90;;;;;;5073616;28;20805;-55
2024/02/25 02:58:11;;;;;;;1.47;1.10;;;8.10;99.90;;;;;;5073148;28;20934;-55
2024/02/25 03:00:37;;;;;;;0.90;0.60;;;8.10;99.90;;;;;;5073499;28;20494;-55
2024/02/25 03:03:04;;;;;;;1.17;0.57;;;8.20;99.90;;;;;;5073568;28;20448;-55
2024/02/25 03:05:31;;;;;;;1.37;0.80;;;8.20;99.90;;;;;;5073154;28;20199;-55
2024/02/25 03:07:58;;;;;;;0.70;0.70;;;8.10;99.90;;;;;;5073490;28;20449;-55
2024/02/25 03:10:25;;;;;;;1.50;0.77;;;8.10;99.90;;;;;;5073435;28;20444;-55
2024/02/25 03:12:53;;;;;;;0.67;0.60;;;8.10;99.90;;;;;;5073387;28;20453;-55
2024/02/25 03:15:20;;;;;;;2.17;0.50;;;8.10;99.90;;;;;;5072849;28;20974;-55
2024/02/25 03:17:47;;;;;;;1.23;0.57;;;8.10;99.90;;;;;;5073434;28;20451;-55
2024/02/25 03:20:13;;;;;;;1.43;0.60;;;8.20;99.90;;;;;;5073384;28;20449;-55
2024/02/25 03:22:41;;;;;;;1.23;0.60;;;8.10;99.90;;;;;;5073307;28;20548;-55
2024/02/25 03:25:09;;;;;;;2.23;0.70;;;8.20;99.90;;;;;;5073357;28;20443;-55
2024/02/25 03:27:37;;;;;;;0.67;0.40;;;8.10;99.90;;;;;;5073490;28;20874;-55
2024/02/25 03:30:07;;;;;;;1.47;0.60;;;8.10;99.90;;;;;;5073391;28;20444;-55
2024/02/25 03:32:34;;;;;;;0.90;0.53;;;8.10;99.90;;;;;;5072744;28;20849;-55
2024/02/25 03:35:01;;;;;;;1.63;0.40;;;8.10;99.90;;;;;;5073169;28;20480;-55
2024/02/25 03:37:28;;;;;;;3.60;0.40;;;8.10;99.90;;;;;;5072820;28;20527;-55
2024/02/25 03:39:55;;;;;;;1.50;0.60;;;8.10;99.90;;;;;;5074790;28;20938;-55
2024/02/25 03:42:21;;;;;;;1.53;0.50;;;8.10;99.90;;;;;;5077232;28;20486;-55
2024/02/25 03:44:49;;;;;;;1.37;0.57;;;8.10;99.90;;;;;;5077230;28;20436;-55
2024/02/25 03:47:17;;;;;;;2.40;0.50;;;8.10;99.90;;;;;;5077227;28;20448;-55
2024/02/25 03:49:44;;;;;;;0.87;0.50;;;8.00;99.90;;;;;;5076986;28;20451;-55
2024/02/25 03:52:10;;;;;;;1.80;0.70;;;8.10;99.90;;;;;;5076658;28;20461;-55
2024/02/25 03:54:37;;;;;;;1.87;0.33;;;8.00;99.90;;;;;;5076490;28;21028;-57
2024/02/25 03:57:05;;;;;;;0.60;0.50;;;8.00;99.90;;;;;;5077081;28;20470;-57
2024/02/25 03:59:32;;;;;;;0.90;0.30;;;8.00;99.90;;;;;;5077030;28;20445;-57
2024/02/25 04:01:59;;;;;;;0.67;0.50;;;8.00;99.90;;;;;;5076752;28;20471;-57
2024/02/25 04:04:27;;;;;;;0.63;0.47;;;8.00;99.90;;;;;;5077005;28;20432;-57
2024/02/25 04:06:54;;;;;;;2.70;0.47;;;8.00;99.90;;;;;;5076772;28;20446;-57
2024/02/25 04:09:21;;;;;;;0.93;0.60;;;8.00;99.90;;;;;;5076719;28;20445;-56
2024/02/25 04:11:48;;;;;;;0.80;0.43;;;7.90;99.90;;;;;;5076870;28;20468;-56
2024/02/25 04:14:15;;;;;;;0.77;0.40;;;7.90;99.90;;;;;;5076757;28;20444;-56
2024/02/25 04:16:43;;;;;;;1.43;0.63;;;7.90;99.90;;;;;;5076675;28;20523;-56
2024/02/25 04:19:09;;;;;;;0.50;0.50;;;7.90;99.90;;;;;;5076302;28;20961;-56
2024/02/25 04:21:38;;;;;;;0.53;0.53;;;7.90;99.90;;;;;;5076570;28;20464;-56
2024/02/25 04:24:06;;;;;;;0.70;0.43;;;7.90;99.90;;;;;;5076494;28;20452;-56
2024/02/25 04:26:32;;;;;;;0.90;0.40;;;7.90;99.90;;;;;;5076462;28;20440;-56
2024/02/25 04:28:59;;;;;;;1.20;0.50;;;7.90;99.90;;;;;;5076791;28;20446;-56
2024/02/25 04:31:26;;;;;;;0.40;0.37;;;7.90;99.90;;;;;;5076203;28;20467;-56
2024/02/25 04:33:53;;;;;;;0.87;0.50;;;7.80;99.90;;;;;;5075939;28;20939;-56
2024/02/25 04:36:20;;;;;;;1.90;0.60;;;7.80;99.90;;;;;;5076145;28;20492;-56
2024/02/25 04:38:48;;;;;;;0.40;0.30;;;7.80;99.90;;;;;;5076183;28;20472;-56
2024/02/25 04:41:15;;;;;;;3.30;0.40;;;7.90;99.90;;;;;;5076167;28;20571;-56
2024/02/25 04:43:41;;;;;;;0.40;0.37;;;7.90;99.90;;;;;;5076358;28;20452;-56
2024/02/25 04:46:08;;;;;;;3.03;0.40;;;7.90;99.90;;;;;;5077060;28;20437;-56
2024/02/25 04:48:38;;;;;;;0.87;0.67;;;7.90;99.90;;;;;;5076774;28;20443;-56
2024/02/25 04:51:05;;;;;;;1.63;0.40;;;7.90;99.90;;;;;;5076104;28;20535;-56
2024/02/25 04:53:32;;;;;;;1.43;0.67;;;7.90;99.90;;;;;;5076690;28;20456;-57
2024/02/25 04:56:01;;;;;;;0.73;0.57;;;7.90;99.90;;;;;;5076142;28;20487;-56
2024/02/25 04:58:27;;;;;;;0.50;0.40;;;7.90;99.90;;;;;;5075601;28;20958;-56
2024/02/25 05:00:55;;;;;;;4.83;0.60;;;7.90;99.90;;;;;;5076085;28;20542;-56
2024/02/25 05:03:22;;;;;;;3.70;0.40;;;7.90;99.90;;;;;;5076036;28;20452;-56
2024/02/25 05:05:49;;;;;;;0.50;0.30;;;7.90;99.90;;;;;;5075927;28;20472;-56
2024/02/25 05:08:16;;;;;;;1.17;0.50;;;7.90;99.90;;;;;;5075844;28;20444;-56
2024/02/25 05:10:43;;;;;;;0.40;0.40;;;7.90;99.90;;;;;;5076040;28;20496;-56
2024/02/25 05:13:11;;;;;;;0.60;0.60;;;7.90;99.90;;;;;;5075672;28;20498;-56
2024/02/25 05:15:38;;;;;;;0.57;0.43;;;7.90;99.90;;;;;;5075716;28;20482;-56
2024/02/25 05:18:06;;;;;;;1.37;0.50;;;7.90;99.90;;;;;;5075528;28;20961;-56
2024/02/25 05:20:32;;;;;;;0.53;0.43;;;7.90;99.90;;;;;;5075673;28;20477;-56
2024/02/25 05:22:59;;;;;;;1.03;0.40;;;7.90;99.90;;;;;;5075723;28;20544;-56
2024/02/25 05:25:26;;;;;;;0.60;0.50;;;7.90;99.90;;;;;;5075328;28;20436;-56
2024/02/25 05:27:53;;;;;;;1.10;0.40;;;7.90;99.90;;;;;;5075580;28;20449;-56
2024/02/25 05:30:21;;;;;;;0.93;0.53;;;7.90;99.90;;;;;;5075660;28;20446;-56
2024/02/25 05:32:48;;;;;;;0.40;0.30;;;7.80;99.90;;;;;;5075473;28;20445;-56
2024/02/25 05:35:14;;;;;;;0.47;0.47;;;7.80;99.90;;;;;;5075113;28;20481;-56
2024/02/25 05:37:41;;;;;;;0.43;0.37;;;7.80;99.90;;;;;;5075066;28;20480;-56
2024/02/25 05:40:11;;;;;;;0.83;0.40;;;7.80;99.90;;;;;;5075134;28;20436;-56
2024/02/25 05:42:37;;;;;;;1.30;0.60;;;7.80;99.90;;;;;;5074905;28;20460;-56
2024/02/25 05:45:05;;;;;;;0.70;0.40;;;7.80;99.90;;;;;;5074746;28;20939;-56
2024/02/25 05:47:33;;;;;;;1.17;0.60;;;7.70;99.90;;;;;;5074912;28;20447;-56
2024/02/25 05:50:00;;;;;;;0.50;0.40;;;7.70;99.90;;;;;;5074808;28;20436;-56
2024/02/25 05:52:27;;;;;;;2.03;0.50;;;7.70;99.90;;;;;;5074457;28;21039;-56
2024/02/25 05:54:54;;;;;;;1.40;0.43;;;7.70;99.90;;;;;;5074311;28;20489;-56
2024/02/25 05:57:20;;;;;;;1.13;0.53;;;7.70;99.90;;;;;;5074718;28;20440;-56
2024/02/25 05:59:47;;;;;;;1.43;0.40;;;7.70;99.90;;;;;;5074746;28;20444;-56
2024/02/25 06:02:14;;;;;;;0.40;0.40;;;7.70;99.90;;;;;;5073970;28;20472;-56
2024/02/25 06:04:42;;;;;;;0.50;0.50;;;7.70;99.90;;;;;;5074631;28;20542;-56
2024/02/25 06:07:09;;;;;;;0.67;0.50;;;7.70;99.90;;;;;;5074378;28;20821;-56
2024/02/25 06:09:36;;;;;;;1.77;0.50;;;7.70;99.90;;;;;;5074407;28;20446;-56
2024/02/25 06:12:04;;;;;;;2.63;0.67;;;7.70;99.90;;;;;;5074282;28;20549;-56
2024/02/25 06:14:31;;;;;;;0.47;0.47;;;7.70;99.90;;;;;;5074400;28;20449;-55
2024/02/25 06:16:58;;;;;;;0.73;0.60;;;7.60;99.90;;;;;;5074280;28;20476;-56
2024/02/25 06:19:25;;;;;;;0.60;0.60;;;7.60;99.90;;;;;;5074339;28;20448;-55
2024/02/25 06:21:53;;;;;;;2.00;0.40;;;7.60;99.90;;;;;;5074160;28;21180;-56
2024/02/25 06:24:20;;;;;;;1.10;0.40;;;7.70;99.90;;;;;;5074258;28;20452;-56
2024/02/25 06:26:47;;;;;;;0.77;0.50;;;7.60;99.90;;;;;;5074262;28;20464;-55
2024/02/25 06:29:16;;;;;;;2.97;0.60;;;7.60;99.90;;;;;;5074082;28;20452;-56
2024/02/25 06:31:44;;;;;;;0.53;0.53;;;7.60;99.90;;;;;;5073651;28;20990;-56
2024/02/25 06:34:11;;;;;;;1.03;0.70;;;7.60;99.90;;;;;;5074092;28;20458;-56
2024/02/25 06:36:38;;;;;;;0.60;0.50;;;7.70;99.90;;;;;;5073956;28;20480;-55
2024/02/25 06:39:08;;;;;;;1.07;0.40;;;7.70;99.90;;;;;;5074041;28;20455;-55
2024/02/25 06:41:35;;;;;;;0.40;0.30;;;7.70;99.90;;;;;;5074228;28;20461;-56
2024/02/25 06:44:02;;;;;;;0.90;0.57;;;7.70;99.90;;;;;;5073942;28;20444;-56
2024/02/25 06:46:28;;;;;;;1.10;0.60;;;7.70;99.90;;;;;;5073915;28;20445;-56
2024/02/25 06:48:55;;;;;;;0.97;0.67;;;7.70;99.90;;;;;;5073758;28;20444;-55
2024/02/25 06:51:22;;;;;;;0.60;0.60;;;7.70;99.90;;;;;;5073270;28;20998;-56
2024/02/25 06:53:49;;;;;;;0.73;0.50;;;7.70;99.90;;;;;;5073446;28;20555;-56
2024/02/25 06:56:18;;;;;;;0.67;0.60;;;7.70;99.90;;;;;;5073393;28;20476;-56
2024/02/25 06:58:45;;;;;;;0.50;0.50;;;7.70;99.90;;;;;;5073627;28;20441;-55
2024/02/25 07:01:12;;;;;;;1.03;0.60;;;7.80;99.90;;;;;;5073575;28;20474;-55
2024/02/25 07:03:42;;;;;;;1.80;1.27;;;7.80;99.90;;;;;;5073636;28;20474;-56
2024/02/25 07:06:09;;;;;;;0.93;0.77;;;7.80;99.90;;;;;;5073473;28;20443;-55
2024/02/25 07:08:37;;;;;;;1.43;0.63;;;7.80;99.90;;;;;;5073415;28;20445;-55
2024/02/25 07:11:04;;;;;;;1.23;0.67;;;7.80;99.90;;;;;;5073289;28;20476;-56
2024/02/25 07:13:33;;;;;;;0.93;0.77;;;7.90;99.90;;;;;;5072957;28;20528;-56
2024/02/25 07:16:00;;;;;;;1.00;0.70;;;7.90;99.90;;;;;;5072887;28;20890;-55
2024/02/25 07:18:27;;;;;;;2.50;1.13;;;7.90;99.90;;;;;;5073237;28;20532;-56
2024/02/25 07:20:54;;;;;;;1.57;1.40;;;8.00;99.90;;;;;;5073440;28;20467;-56
2024/02/25 07:23:21;;;;;;;2.80;1.67;;;8.00;99.90;;;;;;5073051;28;20447;-55
2024/02/25 07:25:48;;;;;;;4.50;2.97;;;8.00;99.90;;;;;;5073087;28;20440;-56
2024/02/25 07:28:15;;;;;;;4.83;3.13;;;8.00;99.90;;;;;;5073116;28;20449;-55
2024/02/25 07:30:43;;;;;;;2.20;1.50;;;8.00;99.90;;;;;;5073130;28;20446;-57
2024/02/25 07:33:10;;;;;;;1.37;1.27;;;8.00;99.90;;;;;;5073284;28;20441;-56
2024/02/25 07:35:37;;;;;;;1.30;0.90;;;8.10;99.90;;;;;;5073262;28;20480;-56
2024/02/25 07:38:04;;;;;;;2.50;1.20;;;8.10;99.90;;;;;;5073381;28;20879;-56
2024/02/25 07:40:31;;;;;;;0.80;0.70;;;8.20;99.90;;;;;;5073387;28;20528;-56
2024/02/25 07:42:58;;;;;;;1.03;0.83;;;8.30;99.90;;;;;;5073233;28;20455;-55
2024/02/25 07:45:26;;;;;;;0.50;0.47;;;8.30;99.90;;;;;;5073271;28;20479;-56
2024/02/25 07:47:54;;;;;;;0.60;0.60;;;8.30;99.90;;;;;;5073141;28;21002;-56
2024/02/25 07:50:21;;;;;;;0.90;0.70;;;8.40;99.90;;;;;;5073190;28;20544;-55
2024/02/25 07:52:48;;;;;;;0.80;0.60;;;8.40;99.90;;;;;;5073176;28;20461;-56
2024/02/25 07:55:15;;;;;;;0.50;0.47;;;8.50;99.90;;;;;;5072925;28;20502;-56
2024/02/25 07:57:42;;;;;;;0.60;0.57;;;8.60;99.90;;;;;;5074108;28;20444;-56
2024/02/25 08:00:09;;;;;;;1.43;0.60;;;8.60;99.90;;;;;;5073907;28;20447;-56
2024/02/25 08:02:36;;;;;;;1.43;0.63;;;8.70;99.90;;;;;;5073420;28;20805;-56
2024/02/25 08:05:08;;;;;;;0.57;0.50;;;8.70;99.90;;;;;;5073935;28;20440;-56
2024/02/25 08:07:35;;;;;;;0.70;0.60;;;8.80;99.90;;;;;;5074002;28;20464;-56
2024/02/25 08:10:01;;;;;;;0.60;0.60;;;8.90;99.90;;;;;;5073175;28;20964;-56
2024/02/25 08:12:28;;;;;;;0.60;0.60;;;8.90;99.90;;;;;;5073321;28;20469;-56
2024/02/25 08:14:57;;;;;;;1.00;0.90;;;9.00;99.90;;;;;;5073675;28;20441;-56
2024/02/25 08:17:24;;;;;;;3.70;1.60;;;9.10;99.90;;;;;;5073141;28;20488;-56
2024/02/25 08:19:51;;;;;;;12.70;5.30;;;9.10;99.90;;;;;;5073568;28;20480;-56
2024/02/25 08:22:20;;;;;;;3.17;2.10;;;9.10;99.90;;;;;;5073067;28;20465;-56
2024/02/25 08:24:47;;;;;;;1.13;1.03;;;9.20;99.90;;;;;;5073674;28;20558;-56
2024/02/25 08:27:14;;;;;;;0.50;0.50;;;9.20;99.90;;;;;;5077154;28;20954;-56
2024/02/25 08:29:43;;;;;;;1.33;0.40;;;9.30;99.90;;;;;;5077382;28;20436;-56
2024/02/25 08:32:10;;;;;;;0.83;0.50;;;9.40;99.50;;;;;;5077544;28;20480;-56
2024/02/25 08:34:36;;;;;;;1.57;0.90;;;9.40;99.50;;;;;;5077357;28;20444;-56
2024/02/25 08:37:04;;;;;;;1.53;1.10;;;9.50;99.50;;;;;;5076950;28;20480;-56
2024/02/25 08:39:32;;;;;;;6.10;3.60;;;9.50;99.40;;;;;;5076470;28;20790;-56
2024/02/25 08:41:59;;;;;;;9.73;3.30;;;9.60;99.50;;;;;;5076406;28;20475;-56
2024/02/25 08:44:26;;;;;;;8.50;4.30;;;9.70;99.30;;;;;;5076451;28;20445;-56
2024/02/25 08:46:53;;;;;;;2.53;0.90;;;9.70;99.00;;;;;;5076180;28;20447;-56
2024/02/25 08:49:20;;;;;;;3.10;1.17;;;9.90;98.50;;;;;;5076114;28;20436;-56
2024/02/25 08:51:46;;;;;;;4.53;0.87;;;9.90;97.90;;;;;;5075827;28;20456;-56
2024/02/25 08:54:13;;;;;;;1.27;0.77;;;10.00;97.60;;;;;;5075785;28;20459;-56
2024/02/25 08:56:41;;;;;;;1.70;0.60;;;10.10;98.10;;;;;;5076049;28;20484;-56
2024/02/25 08:59:08;;;;;;;0.50;0.50;;;10.20;97.40;;;;;;5075624;28;20448;-56
2024/02/25 09:01:35;;;;;;;0.60;0.60;;;10.30;97.40;;;;;;5075582;28;20476;-56
2024/02/25 09:04:01;;;;;;;3.83;0.93;;;10.40;96.80;;;;;;5075957;28;20819;-56
2024/02/25 09:06:28;;;;;;;1.70;0.40;;;10.50;96.30;;;;;;5075779;28;20468;-56
2024/02/25 09:08:57;;;;;;;2.33;0.80;;;10.60;95.20;;;;;;5075666;28;20483;-56
2024/02/25 09:11:24;;;;;;;3.03;0.93;;;10.60;95.10;;;;;;5075637;28;20464;-56
2024/02/25 09:13:54;;;;;;;1.57;0.57;;;10.60;94.90;;;;;;5075933;28;20446;-56
2024/02/25 09:16:21;;;;;;;0.70;0.40;;;10.60;95.00;;;;;;5075638;28;20878;-56
2024/02/25 09:18:49;;;;;;;1.10;0.63;;;10.60;94.90;;;;;;5075313;28;20449;-56
2024/02/25 09:21:16;;;;;;;0.87;0.43;;;10.60;94.50;;;;;;5075693;28;20468;-56
2024/02/25 09:23:42;;;;;;;0.73;0.50;;;10.60;94.40;;;;;;5075544;28;20441;-56
2024/02/25 09:26:09;;;;;;;0.90;0.50;;;10.50;94.50;;;;;;5075220;28;20803;-56
2024/02/25 09:28:37;;;;;;;4.13;0.83;;;10.40;94.60;;;;;;5075114;28;20452;-55
2024/02/25 09:31:05;;;;;;;1.17;0.60;;;10.50;95.10;;;;;;5074823;28;20464;-56
2024/02/25 09:33:34;;;;;;;0.90;0.60;;;10.60;94.60;;;;;;5074895;28;20980;-56
2024/02/25 09:36:00;;;;;;;2.07;0.63;;;10.70;94.70;;;;;;5075185;28;20476;-56
2024/02/25 09:38:27;;;;;;;0.63;0.60;;;10.80;94.50;;;;;;5074170;28;20445;-56
2024/02/25 09:41:00;;;;;;;2.07;0.63;;;10.90;93.30;;;;;;5074778;28;20464;-56
2024/02/25 09:43:27;;;;;;;1.90;0.70;;;10.90;93.20;;;;;;5074739;28;20836;-56
2024/02/25 09:45:56;;;;;;;2.47;0.50;;;11.00;93.50;;;;;;5074836;28;20562;-56
2024/02/25 09:48:25;;;;;;;1.07;0.63;;;11.10;93.80;;;;;;5074853;28;20470;-56
2024/02/25 09:50:53;;;;;;;2.40;0.60;;;11.20;93.60;;;;;;5074742;28;20537;-56
2024/02/25 09:53:21;;;;;;;1.47;0.63;;;11.40;93.20;;;;;;5074597;28;20492;-56
2024/02/25 09:55:49;;;;;;;0.90;0.70;;;11.40;92.60;;;;;;5074834;28;20429;-56
2024/02/25 09:58:16;;;;;;;1.73;0.83;;;11.50;92.60;;;;;;5074458;28;20868;-56
2024/02/25 10:00:43;;;;;;;1.10;0.60;;;11.60;92.30;;;;;;5074358;28;20441;-56
2024/02/25 10:03:12;;;;;;;2.30;0.80;;;11.70;91.40;;;;;;5074646;28;20449;-56
2024/02/25 10:05:40;;;;;;;3.67;1.10;;;11.80;91.90;;;;;;5074714;28;20444;-56
2024/02/25 10:08:10;;;;;;;3.33;1.00;;;11.90;91.30;;;;;;5074223;28;20444;-56
2024/02/25 10:10:38;;;;;;;2.40;0.57;;;11.90;91.30;;;;;;5074265;28;20463;-57
2024/02/25 10:13:05;;;;;;;1.73;0.70;;;11.90;91.10;;;;;;5074082;28;20841;-56
2024/02/25 10:15:32;;;;;;;2.97;0.77;;;11.90;91.00;;;;;;5074383;28;20909;-56
2024/02/25 10:17:59;;;;;;;1.30;0.60;;;11.90;90.50;;;;;;5074280;28;20483;-56
2024/02/25 10:20:26;;;;;;;1.50;0.50;;;12.00;90.70;;;;;;5074269;28;20448;-57
2024/02/25 10:23:06;;;;;;;1.40;1.10;;;12.00;90.10;;;;;;5074271;28;20445;-56
2024/02/25 10:25:32;;;;;;;1.90;0.70;;;12.10;89.50;;;;;;5073949;28;20428;-56
2024/02/25 10:28:12;;;;;;;2.87;0.57;;;12.00;89.40;;;;;;5073956;28;20803;-56
2024/02/25 10:30:39;;;;;;;1.83;0.80;;;12.00;89.80;;;;;;5073718;28;20429;-56
2024/02/25 10:33:14;;;;;;;1.63;0.53;;;12.10;89.70;;;;;;5073650;28;20455;-56
2024/02/25 10:35:41;;;;;;;0.70;0.40;;;12.20;88.90;;;;;;5074167;28;20494;-56
2024/02/25 10:38:12;;;;;;;3.47;1.00;;;12.30;88.30;;;;;;5073535;28;21009;-56
2024/02/25 10:40:41;;;;;;;2.90;1.00;;;12.30;87.50;;;;;;5073901;28;20433;-56
2024/02/25 10:43:12;;;;;;;0.80;0.50;;;12.30;86.20;;;;;;5074033;28;20480;-56
2024/02/25 10:45:42;;;;;;;0.80;0.47;;;12.40;86.90;;;;;;5073950;28;20433;-56
2024/02/25 10:48:10;;;;;;;0.60;0.57;;;12.60;86.70;;;;;;5073677;28;20444;-56
2024/02/25 10:50:38;;;;;;;5.67;0.97;;;13.00;84.60;;;;;;5073602;28;20440;-57
2024/02/25 10:53:06;;;;;;;2.23;0.70;;;13.30;83.00;;;;;;5073604;28;20452;-56
2024/02/25 10:55:35;;;;;;;1.53;1.03;;;13.60;81.10;;;;;;5073856;28;20436;-56
2024/02/25 10:58:02;;;;;;;5.20;0.70;;;13.70;79.80;;;;;;5073645;28;20484;-55
2024/02/25 11:00:28;;;;;;;1.47;0.67;;;13.50;78.00;;;;;;5073626;28;20443;-57
2024/02/25 11:02:57;;;;;;;1.37;0.60;;;13.60;78.40;;;;;;5073744;28;20447;-56
2024/02/25 11:05:23;;;;;;;3.90;0.70;;;13.50;78.30;;;;;;5073793;28;20441;-56
2024/02/25 11:07:50;;;;;;;2.37;0.60;;;13.40;78.80;;;;;;5073590;28;20954;-56
2024/02/25 11:10:21;;;;;;;3.03;0.70;;;13.30;78.80;;;;;;5074598;28;20447;-56
2024/02/25 11:12:51;;;;;;;2.30;0.70;;;13.30;78.90;;;;;;5073942;28;20471;-56
2024/02/25 11:15:21;;;;;;;3.73;0.67;;;13.20;78.20;;;;;;5075044;28;20441;-56
2024/02/25 11:17:50;;;;;;;2.30;0.87;;;13.20;78.60;;;;;;5073644;28;20487;-56
2024/02/25 11:20:22;;;;;;;2.50;0.80;;;13.30;78.80;;;;;;5073796;28;20592;-56
2024/02/25 11:22:50;;;;;;;2.07;0.60;;;13.90;78.00;;;;;;5073607;28;20468;-56
2024/02/25 11:25:36;;;;;;;2.07;0.47;;;14.20;74.50;;;;;;5073428;28;20441;-56
2024/02/25 11:28:06;;;;;;;2.03;0.60;;;14.20;74.80;;;;;;5073665;28;20511;-56
2024/02/25 11:30:37;;;;;;;4.33;0.60;;;14.00;74.80;;;;;;5073455;28;20445;-56
2024/02/25 11:33:39;;;;;;;2.40;0.83;;;13.70;74.90;;;;;;5073340;28;20455;-56
2024/02/25 11:36:15;;;;;;;2.77;0.90;;;13.70;76.00;;;;;;5073713;28;20456;-56
2024/02/25 11:38:54;;;;;;;3.57;0.83;;;13.80;76.80;;;;;;5073634;28;20895;-56
2024/02/25 11:41:26;;;;;;;1.40;0.47;;;14.00;76.70;;;;;;5073313;28;20464;-56
2024/02/25 11:43:55;;;;;;;1.40;0.60;;;14.40;72.10;;;;;;5073336;28;20425;-57
2024/02/25 11:46:22;;;;;;;3.57;0.67;;;14.50;73.30;;;;;;5073188;28;20444;-56
2024/02/25 11:48:49;;;;;;;2.50;0.60;;;14.50;73.90;;;;;;5073120;28;20445;-56
2024/02/25 11:51:16;;;;;;;2.90;0.77;;;14.40;72.40;;;;;;5072907;28;20468;-56
2024/02/25 11:53:49;;;;;;;1.07;0.40;;;14.40;70.00;;;;;;5072825;28;20579;-56
2024/02/25 11:56:16;;;;;;;2.30;0.60;;;14.20;69.40;;;;;;5072863;28;20455;-56
2024/02/25 11:58:42;;;;;;;1.03;0.40;;;13.80;69.80;;;;;;5073017;28;20476;-56
2024/02/25 12:01:11;;;;;;;2.40;0.60;;;13.50;70.60;;;;;;5074937;28;20842;-56
2024/02/25 12:03:39;;;;;;;0.83;0.50;;;13.40;71.90;;;;;;5077013;28;20821;-56
2024/02/25 12:06:05;;;;;;;2.60;0.97;;;13.20;72.70;;;;;;5077041;28;20452;-56
2024/02/25 12:08:32;;;;;;;3.77;1.10;;;12.80;73.20;;;;;;5076941;28;20443;-56
2024/02/25 12:11:00;;;;;;;2.47;1.48;;;12.70;77.00;;;;;;5075734;28;20436;-56
2024/02/25 12:13:27;;;;;;;3.10;1.43;;;12.70;76.20;;;;;;5076667;28;20202;-56
2024/02/25 12:15:55;;;;;;;2.63;0.90;;;12.60;76.60;;;;;;5076614;28;20443;-57
2024/02/25 12:18:23;;;;;;;1.33;0.70;;;12.60;76.70;;;;;;5076588;28;20480;-56
2024/02/25 12:20:50;;;;;;;2.00;0.53;;;12.50;76.40;;;;;;5076526;28;20479;-56
2024/02/25 12:23:18;;;;;;;2.23;0.60;;;12.40;77.60;;;;;;5076661;28;20455;-57
2024/02/25 12:25:45;;;;;;;1.47;0.50;;;12.40;79.10;;;;;;5076565;28;20547;-57
2024/02/25 12:28:13;;;;;;;2.60;0.70;;;12.30;83.00;;;;;;5076444;28;20535;-57
2024/02/25 12:30:44;;;;;;;2.30;0.50;;;12.30;85.30;;;;;;5076468;28;20472;-57
2024/02/25 12:33:12;;;;;;;2.20;0.97;;;12.50;87.60;;;;;;5075995;28;20504;-57
2024/02/25 12:35:40;;;;;;;2.90;2.10;;;12.80;86.30;;;;;;5076256;28;20460;-57
2024/02/25 12:38:10;;;;;;;2.73;1.80;;;13.10;84.60;;;;;;5076128;28;20488;-57
2024/02/25 12:40:44;;;;;;;3.40;1.20;;;13.30;81.80;;;;;;5076150;28;20440;-57
2024/02/25 12:43:11;;;;;;;1.23;0.57;;;13.50;80.40;;;;;;5075876;28;21013;-56
2024/02/25 12:45:37;;;;;;;1.57;0.63;;;13.50;79.80;;;;;;5076209;28;20436;-57
2024/02/25 12:48:05;;;;;;;2.00;0.50;;;13.50;77.80;;;;;;5076099;28;20437;-57
2024/02/25 12:50:32;;;;;;;0.63;0.50;;;13.40;75.60;;;;;;5075988;28;20440;-57
2024/02/25 12:53:02;;;;;;;0.70;0.40;;;13.20;77.30;;;;;;5075802;28;20452;-56
2024/02/25 12:55:28;;;;;;;2.47;0.97;;;12.90;79.70;;;;;;5075952;28;20444;-56